sensor_id;sensor_type;location;lat;lon;timestamp;P1;durP1;ratioP1;P2;durP2;ratioP2
2049;SDS011;8478;49.208;8.806;2023-04-25T00:01:16;13.57;;;6.00;;
2049;SDS011;8478;49.208;8.806;2023-04-25T00:03:42;28.23;;;8.27;;
2049;SDS011;8478;49.208;8.806;2023-04-25T00:06:08;10.37;;;6.57;;
2049;SDS011;8478;49.208;8.806;2023-04-25T00:08:33;6.20;;;5.37;;
2049;SDS011;8478;49.208;8.806;2023-04-25T00:11:00;7.60;;;5.00;;
2049;SDS011;8478;49.208;8.806;2023-04-25T00:13:26;6.97;;;5.20;;
2049;SDS011;8478;49.208;8.806;2023-04-25T00:15:52;6.07;;;5.60;;
2049;SDS011;8478;49.208;8.806;2023-04-25T00:18:18;5.77;;;5.37;;
2049;SDS011;8478;49.208;8.806;2023-04-25T00:20:45;7.97;;;5.30;;
2049;SDS011;8478;49.208;8.806;2023-04-25T00:23:15;5.83;;;5.33;;
2049;SDS011;8478;49.208;8.806;2023-04-25T00:25:42;5.77;;;5.10;;
2049;SDS011;8478;49.208;8.806;2023-04-25T00:28:12;6.00;;;5.07;;
2049;SDS011;8478;49.208;8.806;2023-04-25T00:30:38;5.43;;;5.07;;
2049;SDS011;8478;49.208;8.806;2023-04-25T00:33:05;6.37;;;4.93;;
2049;SDS011;8478;49.208;8.806;2023-04-25T00:35:31;5.90;;;4.97;;
2049;SDS011;8478;49.208;8.806;2023-04-25T00:37:57;5.93;;;5.30;;
2049;SDS011;8478;49.208;8.806;2023-04-25T00:40:23;5.23;;;4.83;;
2049;SDS011;8478;49.208;8.806;2023-04-25T00:42:49;5.13;;;4.73;;
2049;SDS011;8478;49.208;8.806;2023-04-25T00:45:16;5.10;;;4.80;;
2049;SDS011;8478;49.208;8.806;2023-04-25T00:47:42;5.00;;;4.60;;
2049;SDS011;8478;49.208;8.806;2023-04-25T00:50:09;5.13;;;4.67;;
2049;SDS011;8478;49.208;8.806;2023-04-25T00:52:36;5.23;;;4.93;;
2049;SDS011;8478;49.208;8.806;2023-04-25T00:55:03;5.90;;;5.40;;
2049;SDS011;8478;49.208;8.806;2023-04-25T00:57:30;5.70;;;5.20;;
2049;SDS011;8478;49.208;8.806;2023-04-25T00:59:55;5.43;;;5.03;;
2049;SDS011;8478;49.208;8.806;2023-04-25T01:02:21;5.07;;;4.77;;
2049;SDS011;8478;49.208;8.806;2023-04-25T01:04:47;5.57;;;4.43;;
2049;SDS011;8478;49.208;8.806;2023-04-25T01:07:13;5.00;;;4.60;;
2049;SDS011;8478;49.208;8.806;2023-04-25T01:09:40;5.33;;;4.90;;
2049;SDS011;8478;49.208;8.806;2023-04-25T01:12:06;5.90;;;5.40;;
2049;SDS011;8478;49.208;8.806;2023-04-25T01:14:32;5.50;;;5.20;;
2049;SDS011;8478;49.208;8.806;2023-04-25T01:16:58;5.03;;;4.73;;
2049;SDS011;8478;49.208;8.806;2023-04-25T01:19:24;5.80;;;4.57;;
2049;SDS011;8478;49.208;8.806;2023-04-25T01:21:50;5.93;;;5.30;;
2049;SDS011;8478;49.208;8.806;2023-04-25T01:24:16;5.13;;;4.73;;
2049;SDS011;8478;49.208;8.806;2023-04-25T01:26:42;4.67;;;4.37;;
2049;SDS011;8478;49.208;8.806;2023-04-25T01:29:18;5.27;;;4.97;;
2049;SDS011;8478;49.208;8.806;2023-04-25T01:31:44;4.80;;;4.50;;
2049;SDS011;8478;49.208;8.806;2023-04-25T01:34:11;5.27;;;4.87;;
2049;SDS011;8478;49.208;8.806;2023-04-25T01:36:37;4.70;;;4.40;;
2049;SDS011;8478;49.208;8.806;2023-04-25T01:39:03;5.30;;;4.60;;
2049;SDS011;8478;49.208;8.806;2023-04-25T01:41:29;5.83;;;5.43;;
2049;SDS011;8478;49.208;8.806;2023-04-25T01:43:55;5.07;;;4.77;;
2049;SDS011;8478;49.208;8.806;2023-04-25T01:46:21;4.80;;;4.47;;
2049;SDS011;8478;49.208;8.806;2023-04-25T01:48:47;5.33;;;4.87;;
2049;SDS011;8478;49.208;8.806;2023-04-25T01:51:13;4.83;;;4.53;;
2049;SDS011;8478;49.208;8.806;2023-04-25T01:53:40;5.07;;;4.73;;
2049;SDS011;8478;49.208;8.806;2023-04-25T01:56:06;5.30;;;5.00;;
2049;SDS011;8478;49.208;8.806;2023-04-25T01:58:32;4.83;;;4.53;;
2049;SDS011;8478;49.208;8.806;2023-04-25T02:00:58;4.80;;;4.53;;
2049;SDS011;8478;49.208;8.806;2023-04-25T02:03:24;5.43;;;5.03;;
2049;SDS011;8478;49.208;8.806;2023-04-25T02:05:50;5.27;;;4.87;;
2049;SDS011;8478;49.208;8.806;2023-04-25T02:08:16;4.97;;;4.63;;
2049;SDS011;8478;49.208;8.806;2023-04-25T02:10:43;6.00;;;5.50;;
2049;SDS011;8478;49.208;8.806;2023-04-25T02:13:09;4.93;;;4.53;;
2049;SDS011;8478;49.208;8.806;2023-04-25T02:15:35;5.07;;;4.77;;
2049;SDS011;8478;49.208;8.806;2023-04-25T02:18:01;5.90;;;5.60;;
2049;SDS011;8478;49.208;8.806;2023-04-25T02:20:28;5.77;;;5.37;;
2049;SDS011;8478;49.208;8.806;2023-04-25T02:22:55;5.57;;;5.10;;
2049;SDS011;8478;49.208;8.806;2023-04-25T02:25:21;5.53;;;5.13;;
2049;SDS011;8478;49.208;8.806;2023-04-25T02:27:47;5.93;;;5.50;;
2049;SDS011;8478;49.208;8.806;2023-04-25T02:30:13;6.10;;;5.47;;
2049;SDS011;8478;49.208;8.806;2023-04-25T02:32:40;6.97;;;5.10;;
2049;SDS011;8478;49.208;8.806;2023-04-25T02:35:06;6.07;;;5.60;;
2049;SDS011;8478;49.208;8.806;2023-04-25T02:37:33;5.67;;;5.27;;
2049;SDS011;8478;49.208;8.806;2023-04-25T02:39:59;6.10;;;5.70;;
2049;SDS011;8478;49.208;8.806;2023-04-25T02:42:25;5.80;;;5.50;;
2049;SDS011;8478;49.208;8.806;2023-04-25T02:44:52;5.93;;;5.53;;
2049;SDS011;8478;49.208;8.806;2023-04-25T02:47:18;5.90;;;5.30;;
2049;SDS011;8478;49.208;8.806;2023-04-25T02:49:44;5.40;;;5.10;;
2049;SDS011;8478;49.208;8.806;2023-04-25T02:52:10;5.40;;;5.10;;
2049;SDS011;8478;49.208;8.806;2023-04-25T02:54:36;5.90;;;5.50;;
2049;SDS011;8478;49.208;8.806;2023-04-25T02:57:02;5.77;;;5.40;;
2049;SDS011;8478;49.208;8.806;2023-04-25T02:59:28;5.93;;;5.53;;
2049;SDS011;8478;49.208;8.806;2023-04-25T03:01:54;6.60;;;6.20;;
2049;SDS011;8478;49.208;8.806;2023-04-25T03:04:19;5.60;;;5.30;;
2049;SDS011;8478;49.208;8.806;2023-04-25T03:06:46;6.13;;;5.73;;
2049;SDS011;8478;49.208;8.806;2023-04-25T03:09:11;5.80;;;5.50;;
2049;SDS011;8478;49.208;8.806;2023-04-25T03:11:38;6.43;;;6.03;;
2049;SDS011;8478;49.208;8.806;2023-04-25T03:14:04;5.70;;;5.27;;
2049;SDS011;8478;49.208;8.806;2023-04-25T03:16:30;7.00;;;6.50;;
2049;SDS011;8478;49.208;8.806;2023-04-25T03:18:56;6.20;;;5.80;;
2049;SDS011;8478;49.208;8.806;2023-04-25T03:21:22;5.23;;;4.90;;
2049;SDS011;8478;49.208;8.806;2023-04-25T03:23:48;6.73;;;6.23;;
2049;SDS011;8478;49.208;8.806;2023-04-25T03:26:13;5.77;;;5.27;;
2049;SDS011;8478;49.208;8.806;2023-04-25T03:28:39;5.50;;;5.20;;
2049;SDS011;8478;49.208;8.806;2023-04-25T03:31:05;6.20;;;5.80;;
2049;SDS011;8478;49.208;8.806;2023-04-25T03:33:31;5.80;;;5.50;;
2049;SDS011;8478;49.208;8.806;2023-04-25T03:35:56;7.07;;;6.57;;
2049;SDS011;8478;49.208;8.806;2023-04-25T03:38:22;6.23;;;5.73;;
2049;SDS011;8478;49.208;8.806;2023-04-25T03:40:48;6.00;;;5.60;;
2049;SDS011;8478;49.208;8.806;2023-04-25T03:43:15;6.00;;;5.60;;
2049;SDS011;8478;49.208;8.806;2023-04-25T03:45:41;5.70;;;5.40;;
2049;SDS011;8478;49.208;8.806;2023-04-25T03:48:07;5.70;;;5.40;;
2049;SDS011;8478;49.208;8.806;2023-04-25T03:50:32;5.83;;;5.43;;
2049;SDS011;8478;49.208;8.806;2023-04-25T03:52:58;6.13;;;5.63;;
2049;SDS011;8478;49.208;8.806;2023-04-25T03:55:24;5.73;;;5.43;;
2049;SDS011;8478;49.208;8.806;2023-04-25T03:57:50;5.93;;;5.53;;
2049;SDS011;8478;49.208;8.806;2023-04-25T04:00:15;6.03;;;5.63;;
2049;SDS011;8478;49.208;8.806;2023-04-25T04:02:41;6.73;;;6.33;;
2049;SDS011;8478;49.208;8.806;2023-04-25T04:05:07;5.83;;;5.53;;
2049;SDS011;8478;49.208;8.806;2023-04-25T04:07:32;6.63;;;6.07;;
2049;SDS011;8478;49.208;8.806;2023-04-25T04:10:01;5.83;;;5.53;;
2049;SDS011;8478;49.208;8.806;2023-04-25T04:12:27;6.00;;;5.60;;
2049;SDS011;8478;49.208;8.806;2023-04-25T04:14:52;5.90;;;5.40;;
2049;SDS011;8478;49.208;8.806;2023-04-25T04:17:18;6.23;;;5.93;;
2049;SDS011;8478;49.208;8.806;2023-04-25T04:19:44;5.80;;;5.50;;
2049;SDS011;8478;49.208;8.806;2023-04-25T04:22:09;5.43;;;5.13;;
2049;SDS011;8478;49.208;8.806;2023-04-25T04:24:35;6.13;;;5.73;;
2049;SDS011;8478;49.208;8.806;2023-04-25T04:27:01;5.57;;;5.23;;
2049;SDS011;8478;49.208;8.806;2023-04-25T04:29:26;6.97;;;6.47;;
2049;SDS011;8478;49.208;8.806;2023-04-25T04:31:52;6.30;;;5.90;;
2049;SDS011;8478;49.208;8.806;2023-04-25T04:34:18;6.20;;;5.80;;
2049;SDS011;8478;49.208;8.806;2023-04-25T04:36:44;6.40;;;6.00;;
2049;SDS011;8478;49.208;8.806;2023-04-25T04:39:11;6.57;;;6.03;;
2049;SDS011;8478;49.208;8.806;2023-04-25T04:41:37;15.57;;;7.37;;
2049;SDS011;8478;49.208;8.806;2023-04-25T04:44:03;6.60;;;6.10;;
2049;SDS011;8478;49.208;8.806;2023-04-25T04:46:29;5.70;;;5.30;;
2049;SDS011;8478;49.208;8.806;2023-04-25T04:48:56;6.37;;;5.77;;
2049;SDS011;8478;49.208;8.806;2023-04-25T04:51:22;6.10;;;5.80;;
2049;SDS011;8478;49.208;8.806;2023-04-25T04:53:47;6.30;;;5.90;;
2049;SDS011;8478;49.208;8.806;2023-04-25T04:56:13;51.67;;;13.50;;
2049;SDS011;8478;49.208;8.806;2023-04-25T04:58:39;6.87;;;6.27;;
2049;SDS011;8478;49.208;8.806;2023-04-25T05:01:04;6.83;;;6.23;;
2049;SDS011;8478;49.208;8.806;2023-04-25T05:03:31;7.17;;;6.67;;
2049;SDS011;8478;49.208;8.806;2023-04-25T05:05:56;6.80;;;6.30;;
2049;SDS011;8478;49.208;8.806;2023-04-25T05:08:22;6.00;;;5.50;;
2049;SDS011;8478;49.208;8.806;2023-04-25T05:10:47;6.57;;;6.13;;
2049;SDS011;8478;49.208;8.806;2023-04-25T05:13:13;7.20;;;6.70;;
2049;SDS011;8478;49.208;8.806;2023-04-25T05:15:39;7.33;;;6.83;;
2049;SDS011;8478;49.208;8.806;2023-04-25T05:18:05;6.80;;;6.30;;
2049;SDS011;8478;49.208;8.806;2023-04-25T05:20:30;6.70;;;6.20;;
2049;SDS011;8478;49.208;8.806;2023-04-25T05:22:56;6.37;;;5.87;;
2049;SDS011;8478;49.208;8.806;2023-04-25T05:25:21;7.40;;;6.70;;
2049;SDS011;8478;49.208;8.806;2023-04-25T05:27:47;7.50;;;6.93;;
2049;SDS011;8478;49.208;8.806;2023-04-25T05:30:13;7.00;;;6.50;;
2049;SDS011;8478;49.208;8.806;2023-04-25T05:32:38;8.03;;;7.33;;
2049;SDS011;8478;49.208;8.806;2023-04-25T05:35:05;7.07;;;6.60;;
2049;SDS011;8478;49.208;8.806;2023-04-25T05:37:31;7.40;;;6.90;;
2049;SDS011;8478;49.208;8.806;2023-04-25T05:39:57;7.27;;;6.67;;
2049;SDS011;8478;49.208;8.806;2023-04-25T05:42:23;7.47;;;7.00;;
2049;SDS011;8478;49.208;8.806;2023-04-25T05:44:49;7.00;;;6.43;;
2049;SDS011;8478;49.208;8.806;2023-04-25T05:47:14;6.60;;;6.20;;
2049;SDS011;8478;49.208;8.806;2023-04-25T05:49:40;7.40;;;6.90;;
2049;SDS011;8478;49.208;8.806;2023-04-25T05:52:05;6.97;;;6.50;;
2049;SDS011;8478;49.208;8.806;2023-04-25T05:54:31;7.47;;;6.97;;
2049;SDS011;8478;49.208;8.806;2023-04-25T05:56:57;5.90;;;5.50;;
2049;SDS011;8478;49.208;8.806;2023-04-25T05:59:23;6.80;;;6.30;;
2049;SDS011;8478;49.208;8.806;2023-04-25T06:01:48;6.57;;;6.13;;
2049;SDS011;8478;49.208;8.806;2023-04-25T06:04:14;7.10;;;6.60;;
2049;SDS011;8478;49.208;8.806;2023-04-25T06:06:40;7.00;;;6.50;;
2049;SDS011;8478;49.208;8.806;2023-04-25T06:09:05;7.10;;;6.60;;
2049;SDS011;8478;49.208;8.806;2023-04-25T06:11:31;6.77;;;6.27;;
2049;SDS011;8478;49.208;8.806;2023-04-25T06:13:57;7.00;;;6.50;;
2049;SDS011;8478;49.208;8.806;2023-04-25T06:16:22;6.70;;;6.30;;
2049;SDS011;8478;49.208;8.806;2023-04-25T06:18:50;6.27;;;5.87;;
2049;SDS011;8478;49.208;8.806;2023-04-25T06:21:16;6.53;;;6.13;;
2049;SDS011;8478;49.208;8.806;2023-04-25T06:23:42;7.20;;;6.70;;
2049;SDS011;8478;49.208;8.806;2023-04-25T06:26:07;6.70;;;6.30;;
2049;SDS011;8478;49.208;8.806;2023-04-25T06:28:33;6.97;;;6.57;;
2049;SDS011;8478;49.208;8.806;2023-04-25T06:30:58;7.10;;;6.60;;
2049;SDS011;8478;49.208;8.806;2023-04-25T06:33:24;6.60;;;6.20;;
2049;SDS011;8478;49.208;8.806;2023-04-25T06:35:51;6.50;;;6.10;;
2049;SDS011;8478;49.208;8.806;2023-04-25T06:38:17;6.30;;;5.90;;
2049;SDS011;8478;49.208;8.806;2023-04-25T06:40:43;6.80;;;6.40;;
2049;SDS011;8478;49.208;8.806;2023-04-25T06:43:09;7.20;;;6.80;;
2049;SDS011;8478;49.208;8.806;2023-04-25T06:45:35;6.33;;;5.93;;
2049;SDS011;8478;49.208;8.806;2023-04-25T06:48:01;6.60;;;6.20;;
2049;SDS011;8478;49.208;8.806;2023-04-25T06:50:26;7.97;;;7.27;;
2049;SDS011;8478;49.208;8.806;2023-04-25T06:52:52;6.57;;;6.17;;
2049;SDS011;8478;49.208;8.806;2023-04-25T06:55:18;8.60;;;8.10;;
2049;SDS011;8478;49.208;8.806;2023-04-25T06:57:45;7.23;;;6.83;;
2049;SDS011;8478;49.208;8.806;2023-04-25T07:00:11;7.33;;;6.87;;
2049;SDS011;8478;49.208;8.806;2023-04-25T07:02:37;6.67;;;6.27;;
2049;SDS011;8478;49.208;8.806;2023-04-25T07:05:03;8.40;;;7.80;;
2049;SDS011;8478;49.208;8.806;2023-04-25T07:07:29;7.13;;;6.63;;
2049;SDS011;8478;49.208;8.806;2023-04-25T07:09:56;7.43;;;6.83;;
2049;SDS011;8478;49.208;8.806;2023-04-25T07:12:21;7.30;;;6.80;;
2049;SDS011;8478;49.208;8.806;2023-04-25T07:14:47;7.57;;;7.17;;
2049;SDS011;8478;49.208;8.806;2023-04-25T07:17:13;8.63;;;7.87;;
2049;SDS011;8478;49.208;8.806;2023-04-25T07:19:38;7.77;;;7.17;;
2049;SDS011;8478;49.208;8.806;2023-04-25T07:22:05;7.40;;;6.80;;
2049;SDS011;8478;49.208;8.806;2023-04-25T07:24:31;7.67;;;7.07;;
2049;SDS011;8478;49.208;8.806;2023-04-25T07:26:57;8.00;;;7.50;;
2049;SDS011;8478;49.208;8.806;2023-04-25T07:29:23;8.37;;;7.67;;
2049;SDS011;8478;49.208;8.806;2023-04-25T07:31:49;7.93;;;7.43;;
2049;SDS011;8478;49.208;8.806;2023-04-25T07:34:15;8.30;;;7.80;;
2049;SDS011;8478;49.208;8.806;2023-04-25T07:36:40;8.40;;;7.70;;
2049;SDS011;8478;49.208;8.806;2023-04-25T07:39:06;8.17;;;7.57;;
2049;SDS011;8478;49.208;8.806;2023-04-25T07:41:34;8.20;;;7.70;;
2049;SDS011;8478;49.208;8.806;2023-04-25T07:43:59;7.80;;;7.30;;
2049;SDS011;8478;49.208;8.806;2023-04-25T07:46:25;9.53;;;8.83;;
2049;SDS011;8478;49.208;8.806;2023-04-25T07:48:51;8.50;;;7.90;;
2049;SDS011;8478;49.208;8.806;2023-04-25T07:51:16;9.37;;;8.67;;
2049;SDS011;8478;49.208;8.806;2023-04-25T07:53:44;8.30;;;7.70;;
2049;SDS011;8478;49.208;8.806;2023-04-25T07:56:11;8.30;;;7.80;;
2049;SDS011;8478;49.208;8.806;2023-04-25T07:58:36;8.80;;;8.20;;
2049;SDS011;8478;49.208;8.806;2023-04-25T08:01:02;9.50;;;8.90;;
2049;SDS011;8478;49.208;8.806;2023-04-25T08:03:28;8.37;;;7.73;;
2049;SDS011;8478;49.208;8.806;2023-04-25T08:05:53;8.00;;;7.50;;
2049;SDS011;8478;49.208;8.806;2023-04-25T08:08:19;8.90;;;8.40;;
2049;SDS011;8478;49.208;8.806;2023-04-25T08:10:45;8.90;;;8.27;;
2049;SDS011;8478;49.208;8.806;2023-04-25T08:13:13;8.67;;;8.07;;
2049;SDS011;8478;49.208;8.806;2023-04-25T08:15:38;8.80;;;8.20;;
2049;SDS011;8478;49.208;8.806;2023-04-25T08:18:04;9.00;;;8.00;;
2049;SDS011;8478;49.208;8.806;2023-04-25T08:20:30;8.53;;;8.03;;
2049;SDS011;8478;49.208;8.806;2023-04-25T08:22:56;9.60;;;8.90;;
2049;SDS011;8478;49.208;8.806;2023-04-25T08:25:21;8.90;;;8.30;;
2049;SDS011;8478;49.208;8.806;2023-04-25T08:27:47;8.73;;;8.13;;
2049;SDS011;8478;49.208;8.806;2023-04-25T08:30:13;9.57;;;8.87;;
2049;SDS011;8478;49.208;8.806;2023-04-25T08:32:39;8.93;;;8.33;;
2049;SDS011;8478;49.208;8.806;2023-04-25T08:35:04;8.73;;;8.20;;
2049;SDS011;8478;49.208;8.806;2023-04-25T08:37:32;8.70;;;8.10;;
2049;SDS011;8478;49.208;8.806;2023-04-25T08:39:57;9.97;;;9.17;;
2049;SDS011;8478;49.208;8.806;2023-04-25T08:42:23;9.87;;;9.17;;
2049;SDS011;8478;49.208;8.806;2023-04-25T08:44:53;8.80;;;8.20;;
2049;SDS011;8478;49.208;8.806;2023-04-25T08:47:21;9.43;;;8.73;;
2049;SDS011;8478;49.208;8.806;2023-04-25T08:49:47;9.93;;;9.13;;
2049;SDS011;8478;49.208;8.806;2023-04-25T08:52:14;9.60;;;8.90;;
2049;SDS011;8478;49.208;8.806;2023-04-25T08:54:46;10.40;;;9.70;;
2049;SDS011;8478;49.208;8.806;2023-04-25T08:57:14;10.87;;;10.00;;
2049;SDS011;8478;49.208;8.806;2023-04-25T08:59:40;9.53;;;8.73;;
2049;SDS011;8478;49.208;8.806;2023-04-25T09:02:10;9.77;;;9.07;;
2049;SDS011;8478;49.208;8.806;2023-04-25T09:04:42;9.53;;;8.73;;
2049;SDS011;8478;49.208;8.806;2023-04-25T09:07:08;10.13;;;9.43;;
2049;SDS011;8478;49.208;8.806;2023-04-25T09:09:34;10.70;;;9.80;;
2049;SDS011;8478;49.208;8.806;2023-04-25T09:12:01;10.10;;;9.20;;
2049;SDS011;8478;49.208;8.806;2023-04-25T09:14:26;9.70;;;9.00;;
2049;SDS011;8478;49.208;8.806;2023-04-25T09:19:54;9.97;;;9.13;;
2049;SDS011;8478;49.208;8.806;2023-04-25T09:22:15;9.73;;;9.03;;
2049;SDS011;8478;49.208;8.806;2023-04-25T09:24:46;9.80;;;9.10;;
2049;SDS011;8478;49.208;8.806;2023-04-25T09:27:17;9.20;;;8.57;;
2049;SDS011;8478;49.208;8.806;2023-04-25T09:29:44;9.90;;;9.10;;
2049;SDS011;8478;49.208;8.806;2023-04-25T09:32:12;8.90;;;8.20;;
2049;SDS011;8478;49.208;8.806;2023-04-25T09:34:42;9.40;;;8.53;;
2049;SDS011;8478;49.208;8.806;2023-04-25T09:37:09;10.60;;;9.57;;
2049;SDS011;8478;49.208;8.806;2023-04-25T09:39:39;9.07;;;8.33;;
2049;SDS011;8478;49.208;8.806;2023-04-25T09:42:05;8.70;;;8.10;;
2049;SDS011;8478;49.208;8.806;2023-04-25T09:44:31;8.97;;;8.27;;
2049;SDS011;8478;49.208;8.806;2023-04-25T09:46:57;9.60;;;8.80;;
2049;SDS011;8478;49.208;8.806;2023-04-25T09:49:24;9.43;;;8.67;;
2049;SDS011;8478;49.208;8.806;2023-04-25T09:51:55;9.50;;;8.70;;
2049;SDS011;8478;49.208;8.806;2023-04-25T09:54:22;9.10;;;8.40;;
2049;SDS011;8478;49.208;8.806;2023-04-25T09:56:49;9.50;;;8.70;;
2049;SDS011;8478;49.208;8.806;2023-04-25T09:59:19;8.60;;;7.77;;
2049;SDS011;8478;49.208;8.806;2023-04-25T10:01:46;9.00;;;8.10;;
2049;SDS011;8478;49.208;8.806;2023-04-25T10:04:16;8.40;;;7.70;;
2049;SDS011;8478;49.208;8.806;2023-04-25T10:06:45;7.80;;;7.07;;
2049;SDS011;8478;49.208;8.806;2023-04-25T10:09:14;7.40;;;6.90;;
2049;SDS011;8478;49.208;8.806;2023-04-25T10:11:40;10.50;;;7.97;;
2049;SDS011;8478;49.208;8.806;2023-04-25T10:14:06;9.13;;;8.47;;
2049;SDS011;8478;49.208;8.806;2023-04-25T10:16:32;8.50;;;7.87;;
2049;SDS011;8478;49.208;8.806;2023-04-25T10:18:58;7.60;;;7.00;;
2049;SDS011;8478;49.208;8.806;2023-04-25T10:21:24;7.17;;;6.57;;
2049;SDS011;8478;49.208;8.806;2023-04-25T10:23:52;8.57;;;7.93;;
2049;SDS011;8478;49.208;8.806;2023-04-25T10:26:18;8.17;;;7.57;;
2049;SDS011;8478;49.208;8.806;2023-04-25T10:28:55;8.87;;;8.27;;
2049;SDS011;8478;49.208;8.806;2023-04-25T10:31:24;7.90;;;7.37;;
2049;SDS011;8478;49.208;8.806;2023-04-25T10:33:50;7.67;;;6.97;;
2049;SDS011;8478;49.208;8.806;2023-04-25T10:36:19;8.53;;;7.67;;
2049;SDS011;8478;49.208;8.806;2023-04-25T10:38:47;7.70;;;7.10;;
2049;SDS011;8478;49.208;8.806;2023-04-25T10:41:13;10.00;;;8.10;;
2049;SDS011;8478;49.208;8.806;2023-04-25T10:43:40;8.57;;;7.77;;
2049;SDS011;8478;49.208;8.806;2023-04-25T10:46:15;8.00;;;7.40;;
2049;SDS011;8478;49.208;8.806;2023-04-25T10:48:45;9.17;;;8.30;;
2049;SDS011;8478;49.208;8.806;2023-04-25T10:51:28;8.90;;;8.07;;
2049;SDS011;8478;49.208;8.806;2023-04-25T10:59:11;8.23;;;7.37;;
2049;SDS011;8478;49.208;8.806;2023-04-25T11:01:44;9.33;;;8.33;;
2049;SDS011;8478;49.208;8.806;2023-04-25T11:09:34;8.13;;;7.37;;
2049;SDS011;8478;49.208;8.806;2023-04-25T11:12:00;8.60;;;7.80;;
2049;SDS011;8478;49.208;8.806;2023-04-25T11:14:26;8.13;;;7.50;;
2049;SDS011;8478;49.208;8.806;2023-04-25T11:16:53;9.33;;;8.57;;
2049;SDS011;8478;49.208;8.806;2023-04-25T11:19:22;9.53;;;8.27;;
2049;SDS011;8478;49.208;8.806;2023-04-25T11:21:49;8.63;;;7.83;;
2049;SDS011;8478;49.208;8.806;2023-04-25T11:24:18;9.07;;;8.37;;
2049;SDS011;8478;49.208;8.806;2023-04-25T11:26:46;8.60;;;7.90;;
2049;SDS011;8478;49.208;8.806;2023-04-25T11:29:15;8.60;;;7.90;;
2049;SDS011;8478;49.208;8.806;2023-04-25T11:31:43;9.13;;;8.33;;
2049;SDS011;8478;49.208;8.806;2023-04-25T11:34:10;10.40;;;8.50;;
2049;SDS011;8478;49.208;8.806;2023-04-25T11:36:36;9.40;;;8.60;;
2049;SDS011;8478;49.208;8.806;2023-04-25T11:39:03;9.60;;;8.90;;
2049;SDS011;8478;49.208;8.806;2023-04-25T11:41:31;7.90;;;7.20;;
2049;SDS011;8478;49.208;8.806;2023-04-25T11:43:56;10.30;;;8.50;;
2049;SDS011;8478;49.208;8.806;2023-04-25T11:46:22;8.17;;;7.50;;
2049;SDS011;8478;49.208;8.806;2023-04-25T11:48:48;8.30;;;7.50;;
2049;SDS011;8478;49.208;8.806;2023-04-25T11:51:15;8.73;;;7.90;;
2049;SDS011;8478;49.208;8.806;2023-04-25T11:53:41;8.30;;;7.70;;
2049;SDS011;8478;49.208;8.806;2023-04-25T11:56:09;7.80;;;7.20;;
2049;SDS011;8478;49.208;8.806;2023-04-25T12:01:28;8.30;;;7.60;;
2049;SDS011;8478;49.208;8.806;2023-04-25T12:03:55;7.83;;;7.13;;
2049;SDS011;8478;49.208;8.806;2023-04-25T12:06:21;8.00;;;7.30;;
2049;SDS011;8478;49.208;8.806;2023-04-25T12:09:01;8.47;;;7.87;;
2049;SDS011;8478;49.208;8.806;2023-04-25T12:11:29;8.90;;;8.10;;
2049;SDS011;8478;49.208;8.806;2023-04-25T12:14:01;8.73;;;8.13;;
2049;SDS011;8478;49.208;8.806;2023-04-25T12:16:28;8.63;;;7.73;;
2049;SDS011;8478;49.208;8.806;2023-04-25T12:18:54;9.53;;;8.73;;
2049;SDS011;8478;49.208;8.806;2023-04-25T12:21:22;8.70;;;8.00;;
2049;SDS011;8478;49.208;8.806;2023-04-25T12:23:47;9.00;;;7.83;;
2049;SDS011;8478;49.208;8.806;2023-04-25T12:26:13;9.23;;;8.47;;
2049;SDS011;8478;49.208;8.806;2023-04-25T12:28:39;9.33;;;8.63;;
2049;SDS011;8478;49.208;8.806;2023-04-25T12:31:05;10.33;;;9.03;;
2049;SDS011;8478;49.208;8.806;2023-04-25T12:33:32;9.30;;;8.37;;
2049;SDS011;8478;49.208;8.806;2023-04-25T12:36:00;9.27;;;8.47;;
2049;SDS011;8478;49.208;8.806;2023-04-25T12:38:35;10.00;;;9.03;;
2049;SDS011;8478;49.208;8.806;2023-04-25T12:41:02;9.13;;;8.43;;
2049;SDS011;8478;49.208;8.806;2023-04-25T12:43:28;9.40;;;8.60;;
2049;SDS011;8478;49.208;8.806;2023-04-25T12:45:54;9.17;;;8.37;;
2049;SDS011;8478;49.208;8.806;2023-04-25T12:48:21;9.53;;;8.60;;
2049;SDS011;8478;49.208;8.806;2023-04-25T12:50:48;7.83;;;7.23;;
2049;SDS011;8478;49.208;8.806;2023-04-25T12:55:46;8.70;;;8.07;;
2049;SDS011;8478;49.208;8.806;2023-04-25T12:58:13;8.07;;;7.47;;
2049;SDS011;8478;49.208;8.806;2023-04-25T13:00:43;7.67;;;7.07;;
2049;SDS011;8478;49.208;8.806;2023-04-25T13:03:09;8.50;;;8.00;;
2049;SDS011;8478;49.208;8.806;2023-04-25T13:05:36;8.13;;;7.33;;
2049;SDS011;8478;49.208;8.806;2023-04-25T13:08:02;8.60;;;7.87;;
2049;SDS011;8478;49.208;8.806;2023-04-25T13:10:28;8.03;;;7.33;;
2049;SDS011;8478;49.208;8.806;2023-04-25T13:12:53;8.33;;;7.70;;
2049;SDS011;8478;49.208;8.806;2023-04-25T13:15:19;8.03;;;7.23;;
2049;SDS011;8478;49.208;8.806;2023-04-25T13:17:45;8.70;;;7.90;;
2049;SDS011;8478;49.208;8.806;2023-04-25T13:20:11;7.93;;;7.37;;
2049;SDS011;8478;49.208;8.806;2023-04-25T13:22:38;8.97;;;8.20;;
2049;SDS011;8478;49.208;8.806;2023-04-25T13:25:05;8.37;;;7.67;;
2049;SDS011;8478;49.208;8.806;2023-04-25T13:27:32;7.10;;;6.60;;
2049;SDS011;8478;49.208;8.806;2023-04-25T13:30:00;7.70;;;7.10;;
2049;SDS011;8478;49.208;8.806;2023-04-25T13:32:32;7.87;;;7.27;;
2049;SDS011;8478;49.208;8.806;2023-04-25T13:35:01;7.00;;;6.40;;
2049;SDS011;8478;49.208;8.806;2023-04-25T13:37:28;7.50;;;6.80;;
2049;SDS011;8478;49.208;8.806;2023-04-25T13:39:55;7.50;;;6.80;;
2049;SDS011;8478;49.208;8.806;2023-04-25T13:42:21;6.90;;;6.20;;
2049;SDS011;8478;49.208;8.806;2023-04-25T13:44:48;7.03;;;6.60;;
2049;SDS011;8478;49.208;8.806;2023-04-25T13:47:13;7.43;;;6.83;;
2049;SDS011;8478;49.208;8.806;2023-04-25T13:49:39;7.40;;;6.80;;
2049;SDS011;8478;49.208;8.806;2023-04-25T13:52:05;6.77;;;6.37;;
2049;SDS011;8478;49.208;8.806;2023-04-25T13:54:31;7.73;;;7.00;;
2049;SDS011;8478;49.208;8.806;2023-04-25T13:56:57;6.80;;;6.30;;
2049;SDS011;8478;49.208;8.806;2023-04-25T13:59:24;7.60;;;6.93;;
2049;SDS011;8478;49.208;8.806;2023-04-25T14:01:50;6.70;;;6.20;;
2049;SDS011;8478;49.208;8.806;2023-04-25T14:04:16;6.63;;;5.87;;
2049;SDS011;8478;49.208;8.806;2023-04-25T14:06:42;7.30;;;6.70;;
2049;SDS011;8478;49.208;8.806;2023-04-25T14:09:08;6.73;;;6.33;;
2049;SDS011;8478;49.208;8.806;2023-04-25T14:11:38;7.53;;;7.07;;
2049;SDS011;8478;49.208;8.806;2023-04-25T14:14:03;7.03;;;6.53;;
2049;SDS011;8478;49.208;8.806;2023-04-25T14:16:30;6.83;;;6.33;;
2049;SDS011;8478;49.208;8.806;2023-04-25T14:18:57;6.80;;;6.37;;
2049;SDS011;8478;49.208;8.806;2023-04-25T14:21:23;7.00;;;6.40;;
2049;SDS011;8478;49.208;8.806;2023-04-25T14:23:50;6.57;;;6.17;;
2049;SDS011;8478;49.208;8.806;2023-04-25T14:26:15;6.87;;;6.27;;
2049;SDS011;8478;49.208;8.806;2023-04-25T14:28:41;6.23;;;5.83;;
2049;SDS011;8478;49.208;8.806;2023-04-25T14:31:07;6.87;;;6.40;;
2049;SDS011;8478;49.208;8.806;2023-04-25T14:33:32;7.17;;;6.67;;
2049;SDS011;8478;49.208;8.806;2023-04-25T14:35:59;6.47;;;5.97;;
2049;SDS011;8478;49.208;8.806;2023-04-25T14:38:24;7.80;;;6.90;;
2049;SDS011;8478;49.208;8.806;2023-04-25T14:40:50;7.07;;;6.57;;
2049;SDS011;8478;49.208;8.806;2023-04-25T14:43:16;7.37;;;6.97;;
2049;SDS011;8478;49.208;8.806;2023-04-25T14:45:42;7.10;;;6.50;;
2049;SDS011;8478;49.208;8.806;2023-04-25T14:48:08;6.13;;;5.73;;
2049;SDS011;8478;49.208;8.806;2023-04-25T14:50:33;6.90;;;6.40;;
2049;SDS011;8478;49.208;8.806;2023-04-25T14:52:59;7.10;;;6.60;;
2049;SDS011;8478;49.208;8.806;2023-04-25T14:55:26;6.30;;;5.90;;
2049;SDS011;8478;49.208;8.806;2023-04-25T14:57:55;7.37;;;6.70;;
2049;SDS011;8478;49.208;8.806;2023-04-25T15:00:21;7.60;;;7.00;;
2049;SDS011;8478;49.208;8.806;2023-04-25T15:02:50;6.37;;;5.97;;
2049;SDS011;8478;49.208;8.806;2023-04-25T15:05:15;7.87;;;7.07;;
2049;SDS011;8478;49.208;8.806;2023-04-25T15:07:41;7.70;;;6.50;;
2049;SDS011;8478;49.208;8.806;2023-04-25T15:10:07;6.90;;;6.40;;
2049;SDS011;8478;49.208;8.806;2023-04-25T15:12:38;6.93;;;6.43;;
2049;SDS011;8478;49.208;8.806;2023-04-25T15:15:05;7.43;;;6.97;;
2049;SDS011;8478;49.208;8.806;2023-04-25T15:17:36;7.67;;;7.07;;
2049;SDS011;8478;49.208;8.806;2023-04-25T15:20:02;7.50;;;7.00;;
2049;SDS011;8478;49.208;8.806;2023-04-25T15:22:30;8.50;;;7.23;;
2049;SDS011;8478;49.208;8.806;2023-04-25T15:24:56;7.40;;;6.87;;
2049;SDS011;8478;49.208;8.806;2023-04-25T15:27:21;8.07;;;7.37;;
2049;SDS011;8478;49.208;8.806;2023-04-25T15:29:48;8.87;;;8.10;;